Time;durP1;ratioP1;P1;durP2;ratioP2;P2;SDS_P1;SDS_P2;PMS_P1;PMS_P2;Temp;Humidity;BMP_temperature;BMP_pressure;BME280_temperature;BME280_humidity;BME280_pressure;Samples;Min_cycle;Max_cycle;Signal;HPM_P1;HPM_P2
2023/10/01 00:00:41;;;;;;;16.75;11.50;;;;;;;12.94;97.31;102208.72;5091487;28;20395;-75
2023/10/01 00:03:09;;;;;;;15.55;11.02;;;;;;;12.95;97.15;102205.84;5090554;28;20767;-75
2023/10/01 00:05:35;;;;;;;14.38;11.30;;;;;;;12.95;97.35;102200.47;5092219;28;20113;-75
2023/10/01 00:08:01;;;;;;;15.45;11.23;;;;;;;12.84;98.37;102193.59;5091103;28;20496;-75
2023/10/01 00:10:28;;;;;;;16.70;11.15;;;;;;;12.94;98.28;102198.78;5091614;28;20043;-74
2023/10/01 00:12:57;;;;;;;14.70;10.60;;;;;;;13.01;97.60;102198.88;5089417;28;20031;-75
2023/10/01 00:15:25;;;;;;;14.15;10.93;;;;;;;13.07;97.38;102203.56;5091535;28;20077;-75
2023/10/01 00:17:50;;;;;;;15.23;10.95;;;;;;;13.06;97.55;102184.81;5091792;28;20468;-75
2023/10/01 00:20:23;;;;;;;14.30;11.07;;;;;;;12.99;96.87;102184.72;5092329;28;20069;-75
2023/10/01 00:22:50;;;;;;;15.65;11.20;;;;;;;13.02;96.72;102190.59;5082737;28;20067;-75
2023/10/01 00:25:17;;;;;;;16.05;11.68;;;;;;;12.93;96.82;102205.19;5085192;28;20049;-74
2023/10/01 00:27:42;;;;;;;13.52;10.32;;;;;;;12.93;97.19;102218.72;5092731;28;20089;-75
2023/10/01 00:30:10;;;;;;;13.73;10.70;;;;;;;13.01;96.16;102220.50;5092910;28;20527;-74
2023/10/01 00:32:36;;;;;;;14.07;10.80;;;;;;;13.04;95.57;102204.78;5094185;28;20399;-74
2023/10/01 00:35:05;;;;;;;14.18;10.57;;;;;;;13.01;95.74;102202.41;5094435;28;20090;-75
2023/10/01 00:37:32;;;;;;;17.60;10.70;;;;;;;13.07;95.82;102194.63;5092385;28;20030;-75
2023/10/01 00:39:59;;;;;;;13.30;9.85;;;;;;;13.17;94.98;102193.34;5095370;28;20028;-75
2023/10/01 00:42:28;;;;;;;14.00;10.40;;;;;;;13.16;94.48;102194.38;5094253;28;20028;-75
2023/10/01 00:44:54;;;;;;;15.13;11.05;;;;;;;13.19;94.59;102190.47;5073105;28;20047;-75
2023/10/01 00:47:20;;;;;;;14.05;10.20;;;;;;;13.24;93.95;102195.34;5093559;28;20028;-75
2023/10/01 00:49:47;;;;;;;16.17;10.40;;;;;;;13.33;93.01;102191.53;5092351;28;20625;-75
2023/10/01 00:52:18;;;;;;;13.68;10.30;;;;;;;13.36;92.34;102185.78;5074175;28;20157;-75
2023/10/01 00:54:46;;;;;;;13.45;10.50;;;;;;;13.38;92.29;102182.88;5070604;28;20028;-75
2023/10/01 00:57:15;;;;;;;14.77;10.85;;;;;;;13.37;92.18;102187.44;5090222;28;20042;-75
2023/10/01 00:59:44;;;;;;;13.07;10.27;;;;;;;13.33;92.37;102186.94;5085798;28;20040;-75
2023/10/01 01:02:09;;;;;;;13.93;9.82;;;;;;;13.28;92.59;102175.00;5086879;28;20115;-75
2023/10/01 01:04:45;;;;;;;13.77;9.68;;;;;;;13.30;92.34;102170.25;5089746;28;20032;-75
2023/10/01 01:07:19;;;;;;;13.85;9.90;;;;;;;13.28;92.16;102156.94;5092437;28;20039;-75
2023/10/01 01:09:49;;;;;;;15.60;10.07;;;;;;;13.23;92.41;102151.22;5102355;28;20024;-74
2023/10/01 01:12:15;;;;;;;13.13;9.70;;;;;;;13.21;92.65;102145.16;5089631;28;20032;-75
2023/10/01 01:14:44;;;;;;;15.90;9.65;;;;;;;13.13;92.34;102145.25;5093660;28;20020;-75
2023/10/01 01:17:12;;;;;;;14.65;10.15;;;;;;;13.01;93.34;102159.16;5095062;28;20051;-75
2023/10/01 01:19:38;;;;;;;12.23;9.27;;;;;;;12.99;93.14;102163.91;5089176;28;20024;-75
2023/10/01 01:22:03;;;;;;;12.43;9.50;;;;;;;13.03;93.11;102164.41;5090198;28;20486;-75
2023/10/01 01:24:29;;;;;;;11.60;9.40;;;;;;;13.07;91.91;102159.47;5089075;28;20318;-75
2023/10/01 01:27:00;;;;;;;12.82;9.77;;;;;;;13.12;91.53;102151.66;5088940;28;20056;-75
2023/10/01 01:29:40;;;;;;;13.43;9.90;;;;;;;13.05;91.88;102154.25;5094337;28;20443;-75
2023/10/01 01:32:13;;;;;;;17.02;10.38;;;;;;;13.07;91.51;102163.00;5087337;28;20051;-76
2023/10/01 01:34:40;;;;;;;14.73;9.35;;;;;;;13.04;91.34;102158.00;5090992;28;20020;-76
2023/10/01 01:37:06;;;;;;;12.90;9.68;;;;;;;13.02;91.40;102168.13;5090217;28;20051;-77
2023/10/01 01:39:48;;;;;;;16.10;9.88;;;;;;;13.07;91.33;102154.06;5073980;28;20379;-76
2023/10/01 01:42:21;;;;;;;13.25;9.70;;;;;;;13.03;91.88;102154.44;5085791;28;20028;-77
2023/10/01 01:47:33;;;;;;;12.32;9.60;;;;;;;12.95;93.03;102149.09;5095738;28;20039;-76
2023/10/01 01:50:10;;;;;;;14.75;9.73;;;;;;;12.94;93.02;102146.56;5097203;28;20020;-77
2023/10/01 01:52:36;;;;;;;13.27;9.57;;;;;;;12.97;92.65;102138.91;5093717;28;20032;-76
2023/10/01 01:55:23;;;;;;;13.07;9.80;;;;;;;12.94;93.21;102127.63;5092364;28;20481;-76
2023/10/01 01:58:06;;;;;;;12.82;9.82;;;;;;;12.87;93.82;102122.13;5089460;28;20032;-76
2023/10/01 02:00:34;;;;;;;11.82;9.45;;;;;;;12.86;93.36;102115.03;5090001;28;20379;-77
2023/10/01 02:03:10;;;;;;;13.88;10.05;;;;;;;12.80;93.29;102116.59;5093729;28;20119;-77
2023/10/01 02:05:41;;;;;;;16.75;10.30;;;;;;;12.81;93.28;102112.88;5093074;28;20024;-74
2023/10/01 02:08:23;;;;;;;15.88;10.20;;;;;;;12.77;93.10;102119.66;5089798;28;20060;-75
2023/10/01 02:10:50;;;;;;;14.85;9.95;;;;;;;12.70;93.45;102127.66;5092812;28;20035;-74
2023/10/01 02:13:18;;;;;;;12.70;9.38;;;;;;;12.65;93.89;102121.09;5092978;28;20032;-75
2023/10/01 02:15:46;;;;;;;15.25;10.40;;;;;;;12.57;94.17;102125.53;5093771;28;20047;-75
2023/10/01 02:18:16;;;;;;;14.25;10.30;;;;;;;12.50;94.56;102127.28;5094337;28;20539;-74
2023/10/01 02:20:50;;;;;;;17.73;9.93;;;;;;;12.42;95.19;102130.03;5096656;28;20497;-75
2023/10/01 02:23:17;;;;;;;14.50;9.82;;;;;;;12.44;95.19;102130.69;5098391;28;20036;-75
2023/10/01 02:25:46;;;;;;;16.27;11.25;;;;;;;12.45;95.46;102121.56;5098516;28;20086;-75
2023/10/01 02:28:15;;;;;;;16.67;10.93;;;;;;;12.42;95.50;102124.63;5094369;28;20040;-75
2023/10/01 02:30:41;;;;;;;13.88;10.55;;;;;;;12.42;96.14;102121.91;5096596;28;20077;-76
2023/10/01 02:33:16;;;;;;;16.17;10.75;;;;;;;12.41;95.83;102117.53;5094480;28;20581;-75
2023/10/01 02:35:46;;;;;;;17.25;11.05;;;;;;;12.42;96.11;102121.91;5095216;28;20411;-75
2023/10/01 02:40:59;;;;;;;16.30;11.38;;;;;;;12.31;96.75;102122.34;5073545;28;20066;-76
2023/10/01 02:43:34;;;;;;;16.17;10.98;;;;;;;12.34;97.21;102125.50;5092530;28;20123;-75
2023/10/01 02:46:10;;;;;;;16.27;11.10;;;;;;;12.40;97.13;102123.94;5095827;28;20078;-75
2023/10/01 02:48:40;;;;;;;15.13;10.48;;;;;;;12.48;96.73;102121.22;5090333;28;20392;-75
2023/10/01 02:51:14;;;;;;;17.90;11.07;;;;;;;12.54;96.04;102122.34;5075053;28;20114;-75
2023/10/01 02:54:01;;;;;;;15.77;9.88;;;;;;;12.55;96.13;102116.75;5090409;28;20028;-75
2023/10/01 02:56:32;;;;;;;18.35;11.18;;;;;;;12.55;96.03;102121.34;5093263;28;20031;-75
2023/10/01 02:59:08;;;;;;;15.57;10.85;;;;;;;12.57;96.18;102124.72;5092086;28;20051;-75
2023/10/01 03:01:34;;;;;;;16.20;10.97;;;;;;;12.65;95.13;102121.09;5053683;28;20040;-75
2023/10/01 03:04:08;;;;;;;15.63;10.77;;;;;;;12.68;94.80;102124.28;5089285;28;20033;-75
2023/10/01 03:06:34;;;;;;;18.88;11.82;;;;;;;12.69;95.33;102117.03;5092629;28;20020;-75
2023/10/01 03:09:00;;;;;;;15.27;11.35;;;;;;;12.74;94.88;102122.72;5093804;28;20093;-76
2023/10/01 03:11:26;;;;;;;17.85;11.25;;;;;;;12.76;94.93;102114.44;5086895;28;20110;-74
2023/10/01 03:13:54;;;;;;;16.30;10.75;;;;;;;12.75;94.71;102113.59;5091993;28;20036;-74
2023/10/01 03:19:13;;;;;;;16.10;10.68;;;;;;;12.77;94.74;102110.72;5090671;28;20399;-74
2023/10/01 03:24:25;;;;;;;15.25;10.43;;;;;;;12.71;94.61;102101.47;5089444;28;20047;-75
2023/10/01 03:26:51;;;;;;;16.55;10.45;;;;;;;12.72;94.51;102103.13;5090820;28;20039;-75
2023/10/01 03:29:22;;;;;;;15.82;10.95;;;;;;;12.68;95.31;102108.06;5089318;28;20472;-75
2023/10/01 03:31:53;;;;;;;15.88;11.07;;;;;;;12.71;95.01;102104.16;5090639;28;20396;-75
2023/10/01 03:34:29;;;;;;;17.00;11.07;;;;;;;12.73;94.75;102107.53;5090919;28;20107;-75
2023/10/01 03:36:58;;;;;;;15.68;10.68;;;;;;;12.73;94.29;102104.81;5112855;22;20163;-76
2023/10/01 03:39:25;;;;;;;16.10;10.85;;;;;;;12.72;94.40;102113.94;5073745;28;20034;-75
2023/10/01 03:44:59;;;;;;;16.33;11.10;;;;;;;12.69;94.47;102115.16;5085988;28;20063;-75
2023/10/01 03:47:27;;;;;;;16.23;10.85;;;;;;;12.67;94.34;102110.97;5092476;28;20108;-75
2023/10/01 03:49:55;;;;;;;15.65;10.02;;;;;;;12.68;94.52;102109.94;5089175;28;20020;-75
2023/10/01 03:52:21;;;;;;;16.65;10.90;;;;;;;12.74;93.98;102114.63;5092464;28;20036;-75
2023/10/01 03:57:25;;;;;;;17.02;10.65;;;;;;;12.64;94.89;102109.44;5091721;28;20168;-75
2023/10/01 03:59:53;;;;;;;16.48;10.30;;;;;;;12.65;95.64;102110.31;5090712;28;20035;-75
2023/10/01 04:02:28;;;;;;;16.08;10.93;;;;;;;12.63;95.25;102106.94;5087028;28;20112;-75
2023/10/01 04:04:57;;;;;;;14.80;11.40;;;;;;;12.68;95.48;102115.34;5081471;28;20044;-75
2023/10/01 04:07:40;;;;;;;14.50;10.48;;;;;;;12.68;95.53;102118.88;5091582;28;20036;-74
2023/10/01 04:10:13;;;;;;;15.90;11.27;;;;;;;12.67;95.63;102109.09;5092616;28;20039;-75
2023/10/01 04:12:44;;;;;;;14.77;9.82;;;;;;;12.70;95.40;102106.03;5091735;28;20035;-75
2023/10/01 04:15:27;;;;;;;15.02;10.40;;;;;;;12.57;95.92;102112.03;5093509;28;20088;-73
2023/10/01 04:18:09;;;;;;;14.60;10.95;;;;;;;12.59;96.38;102110.00;5087151;28;20031;-73
2023/10/01 04:20:38;;;;;;;14.65;10.20;;;;;;;12.59;96.71;102112.69;5093717;28;20036;-73
2023/10/01 04:23:06;;;;;;;13.80;10.40;;;;;;;12.57;96.86;102103.94;5090616;28;20036;-73
2023/10/01 04:25:36;;;;;;;17.80;10.65;;;;;;;12.61;95.74;102106.28;5088210;28;20081;-73
2023/10/01 04:28:08;;;;;;;15.70;10.18;;;;;;;12.64;95.69;102108.63;5083638;28;20115;-73
2023/10/01 04:30:37;;;;;;;17.48;10.45;;;;;;;12.61;96.21;102106.28;5091538;28;20472;-73
2023/10/01 04:33:17;;;;;;;12.82;9.57;;;;;;;12.64;96.03;102108.63;5090732;28;20040;-73
2023/10/01 04:35:52;;;;;;;16.13;10.15;;;;;;;12.55;96.05;102107.84;5088515;28;20035;-74
2023/10/01 04:38:29;;;;;;;13.95;9.95;;;;;;;12.61;96.74;102107.13;5091663;28;20036;-73
2023/10/01 04:40:57;;;;;;;16.27;9.75;;;;;;;12.57;95.84;102106.63;5091178;28;20035;-72
2023/10/01 04:43:26;;;;;;;14.00;9.52;;;;;;;12.61;95.80;102100.88;5085369;28;20034;-73
2023/10/01 04:45:52;;;;;;;13.35;8.93;;;;;;;12.68;95.16;102108.06;5092434;28;20030;-73
2023/10/01 04:48:24;;;;;;;17.13;9.55;;;;;;;12.70;95.04;102106.03;5088870;28;20043;-73
2023/10/01 04:50:53;;;;;;;12.60;9.15;;;;;;;12.68;95.11;102115.34;5088754;28;20024;-75
2023/10/01 04:53:20;;;;;;;12.30;8.55;;;;;;;12.70;95.23;102106.03;5092384;28;20036;-75
2023/10/01 04:55:57;;;;;;;13.27;9.00;;;;;;;12.55;96.24;102105.13;5091591;28;20021;-76
2023/10/01 04:58:23;;;;;;;12.98;8.80;;;;;;;12.69;95.20;102098.13;5080850;28;20024;-76
2023/10/01 05:00:49;;;;;;;13.77;9.23;;;;;;;12.74;95.12;102091.16;5088915;28;20047;-75
2023/10/01 05:03:15;;;;;;;14.57;9.10;;;;;;;12.71;95.42;102101.47;5090174;28;20031;-76
2023/10/01 05:05:42;;;;;;;12.30;8.50;;;;;;;12.69;95.66;102103.53;5069379;28;20544;-75
2023/10/01 05:08:08;;;;;;;12.20;8.85;;;;;;;12.68;95.42;102097.25;5094165;28;20104;-76
2023/10/01 05:10:51;;;;;;;14.13;8.73;;;;;;;12.76;94.75;102098.22;5090951;28;20020;-76
2023/10/01 05:13:20;;;;;;;10.88;7.97;;;;;;;12.70;94.95;102095.22;5091473;28;20032;-75
2023/10/01 05:15:57;;;;;;;14.32;8.27;;;;;;;12.76;94.74;102099.06;5074395;28;20024;-75
2023/10/01 05:18:28;;;;;;;12.23;7.78;;;;;;;12.76;94.93;102109.03;5084221;28;20056;-75
2023/10/01 05:21:04;;;;;;;11.85;8.10;;;;;;;12.78;94.32;102107.84;5092177;28;20024;-76
2023/10/01 05:23:29;;;;;;;16.60;8.13;;;;;;;12.82;94.41;102114.56;5070795;28;20036;-74
2023/10/01 05:25:56;;;;;;;12.50;7.80;;;;;;;12.81;93.95;102115.59;5090512;28;20032;-74
2023/10/01 05:28:31;;;;;;;12.38;7.63;;;;;;;12.81;94.68;102110.19;5056165;28;20063;-74
2023/10/01 05:31:26;;;;;;;12.32;7.72;;;;;;;12.84;94.00;102115.22;5092107;28;20476;-75
2023/10/01 05:33:52;;;;;;;13.05;7.53;;;;;;;12.87;93.34;102105.91;5084987;28;20047;-76
2023/10/01 05:36:18;;;;;;;11.48;7.40;;;;;;;12.80;94.37;102119.31;5093402;28;20020;-75
2023/10/01 05:38:44;;;;;;;10.07;6.97;;;;;;;12.84;93.38;102114.38;5088764;28;20027;-74
2023/10/01 05:41:13;;;;;;;11.27;7.60;;;;;;;12.78;93.98;102110.53;5072535;28;20396;-75
2023/10/01 05:43:47;;;;;;;10.65;7.25;;;;;;;12.88;94.06;102115.69;5093337;28;20415;-74
2023/10/01 05:46:14;;;;;;;10.88;7.43;;;;;;;12.88;93.95;102113.81;5093257;28;20047;-75
2023/10/01 05:48:49;;;;;;;10.43;7.55;;;;;;;12.89;93.73;102115.50;5085487;28;20024;-75
2023/10/01 05:51:15;;;;;;;11.55;6.97;;;;;;;12.92;93.61;102119.72;5083780;28;20047;-75
2023/10/01 05:53:41;;;;;;;12.45;7.40;;;;;;;12.93;93.41;102123.25;5086841;28;20032;-75
2023/10/01 05:56:07;;;;;;;10.65;7.15;;;;;;;12.97;93.09;102121.88;5089801;28;20035;-76
2023/10/01 05:58:36;;;;;;;9.15;6.70;;;;;;;12.98;93.23;102126.25;5096902;28;20154;-76
2023/10/01 06:01:16;;;;;;;9.95;6.57;;;;;;;12.97;93.38;102125.41;5091686;28;20163;-76
2023/10/01 06:03:48;;;;;;;11.07;6.68;;;;;;;12.97;93.05;102119.16;5091147;28;20093;-76
2023/10/01 06:06:24;;;;;;;11.20;6.60;;;;;;;13.01;92.42;102120.50;5093815;28;20031;-77
2023/10/01 06:09:01;;;;;;;10.87;6.60;;;;;;;13.04;92.76;102133.66;5095680;28;20031;-76
2023/10/01 06:11:41;;;;;;;9.18;6.10;;;;;;;13.14;91.97;102131.53;5094736;28;20385;-76
2023/10/01 06:14:29;;;;;;;10.23;6.40;;;;;;;13.09;91.63;102128.53;5097750;28;20028;-76
2023/10/01 06:17:00;;;;;;;10.45;6.22;;;;;;;13.12;92.17;102130.03;5095674;28;20036;-80
2023/10/01 06:19:32;;;;;;;10.75;6.60;;;;;;;13.14;91.96;102131.53;5097917;28;20070;-74
2023/10/01 06:22:12;;;;;;;9.40;6.13;;;;;;;13.16;91.77;102132.19;5095701;28;20020;-74
2023/10/01 06:24:43;;;;;;;11.63;6.50;;;;;;;13.27;90.58;102132.75;5092619;28;20032;-75
2023/10/01 06:27:12;;;;;;;9.90;6.18;;;;;;;13.31;90.32;102139.50;5092697;28;20032;-75
2023/10/01 06:29:50;;;;;;;10.82;6.47;;;;;;;13.33;89.93;102138.28;5077654;28;20028;-75
2023/10/01 06:32:23;;;;;;;11.23;6.40;;;;;;;13.32;90.04;102138.47;5099608;28;20039;-75
2023/10/01 06:34:49;;;;;;;12.25;6.57;;;;;;;13.29;90.00;102145.09;5094443;28;20032;-74
2023/10/01 06:37:15;;;;;;;11.68;6.45;;;;;;;13.36;89.96;102137.09;5090241;28;20067;-75
2023/10/01 06:39:43;;;;;;;9.85;5.90;;;;;;;13.41;89.38;102145.53;5085847;28;20027;-75
2023/10/01 06:42:19;;;;;;;12.50;6.30;;;;;;;13.47;88.97;102143.94;5089105;28;20032;-75
2023/10/01 06:44:48;;;;;;;9.68;6.50;;;;;;;13.42;89.27;102136.34;5085716;28;20530;-75
2023/10/01 06:47:16;;;;;;;10.55;6.35;;;;;;;13.53;88.13;102143.19;5085867;28;20035;-75
2023/10/01 06:52:27;;;;;;;10.98;5.90;;;;;;;13.60;88.08;102135.16;5088130;28;20040;-76
2023/10/01 06:54:57;;;;;;;9.50;5.88;;;;;;;13.67;88.07;102138.81;5092562;28;20074;-76
2023/10/01 06:57:31;;;;;;;10.38;6.18;;;;;;;13.74;87.18;102134.34;5086823;28;20051;-77
2023/10/01 07:00:12;;;;;;;11.52;6.55;;;;;;;13.82;87.21;102129.84;5088033;28;20365;-77
2023/10/01 07:02:40;;;;;;;9.10;5.50;;;;;;;13.87;86.72;102127.44;5087854;28;20028;-77
2023/10/01 07:05:06;;;;;;;12.85;6.30;;;;;;;13.94;86.28;102133.78;5089854;28;20040;-76
2023/10/01 07:07:35;;;;;;;11.90;6.40;;;;;;;13.97;86.08;102133.38;5090546;28;20043;-76
2023/10/01 07:10:10;;;;;;;11.55;6.15;;;;;;;14.08;85.41;102129.38;5073101;28;20039;-75
2023/10/01 07:12:38;;;;;;;10.63;6.05;;;;;;;14.20;85.02;102127.00;5086945;28;20036;-77
2023/10/01 07:15:04;;;;;;;12.32;6.20;;;;;;;14.30;84.95;102127.53;5090539;28;20024;-78
2023/10/01 07:17:31;;;;;;;11.95;6.18;;;;;;;14.35;85.12;102135.13;5089633;28;20074;-76
2023/10/01 07:20:00;;;;;;;11.55;6.03;;;;;;;14.62;83.58;102122.72;5090022;28;20047;-77
2023/10/01 07:22:38;;;;;;;11.82;6.10;;;;;;;14.81;82.93;102129.38;5092322;28;20043;-77
2023/10/01 07:25:03;;;;;;;9.50;5.82;;;;;;;14.94;81.89;102130.53;5091254;28;20028;-75
2023/10/01 07:27:29;;;;;;;12.38;6.25;;;;;;;15.04;81.78;102132.91;5092406;28;20024;-75
2023/10/01 07:30:01;;;;;;;12.73;6.32;;;;;;;15.31;80.33;102129.38;5074814;28;20028;-75
2023/10/01 07:32:26;;;;;;;10.57;5.78;;;;;;;15.51;79.42;102128.69;5090718;28;20360;-76
2023/10/01 07:34:55;;;;;;;12.40;6.07;;;;;;;15.94;77.35;102126.88;5092763;28;20044;-76
2023/10/01 07:37:31;;;;;;;13.30;6.60;;;;;;;16.33;74.87;102131.63;5058229;28;20059;-76
2023/10/01 07:40:08;;;;;;;9.75;6.30;;;;;;;16.86;73.70;102145.53;5058005;28;20031;-76
2023/10/01 07:42:46;;;;;;;12.05;5.90;;;;;;;17.72;70.55;102139.22;5092445;28;20027;-76
2023/10/01 07:45:16;;;;;;;12.77;6.10;;;;;;;18.91;65.93;102140.75;5091989;28;20508;-75
2023/10/01 07:47:42;;;;;;;10.38;6.05;;;;;;;19.97;61.61;102136.44;5084051;28;20013;-76
2023/10/01 07:50:12;;;;;;;11.25;6.10;;;;;;;21.41;57.03;102149.47;5092297;28;20027;-76
2023/10/01 07:52:40;;;;;;;11.13;6.68;;;;;;;21.64;53.99;102149.50;5091915;28;20028;-77
2023/10/01 07:58:23;;;;;;;14.80;6.63;;;;;;;22.97;51.11;102143.28;5093200;28;20130;-76
2023/10/01 08:00:47;;;;;;;12.05;6.25;;;;;;;23.93;47.52;102146.91;5076348;28;20442;-75
2023/10/01 08:05:47;;;;;;;9.85;6.03;;;;;;;23.32;48.65;102153.19;5092315;28;20032;-75
2023/10/01 08:08:13;;;;;;;10.55;6.50;;;;;;;24.20;47.03;102160.72;5091631;28;20051;-76
2023/10/01 08:10:40;;;;;;;12.50;6.32;;;;;;;23.60;48.28;102151.41;5091632;28;20028;-76
2023/10/01 08:13:06;;;;;;;8.93;5.53;;;;;;;24.71;46.38;102153.31;5092321;28;20094;-76
2023/10/01 08:15:39;;;;;;;9.02;5.72;;;;;;;25.90;42.34;102151.34;5091429;28;20035;-76
2023/10/01 08:20:58;;;;;;;10.97;6.37;;;;;;;25.41;43.10;102161.56;5090273;28;20431;-75
2023/10/01 08:23:26;;;;;;;10.65;6.25;;;;;;;24.63;45.19;102163.66;5088459;28;20075;-75
2023/10/01 08:25:54;;;;;;;11.43;6.28;;;;;;;25.08;43.95;102166.25;5091760;28;20043;-75
2023/10/01 08:30:45;;;;;;;9.38;5.75;;;;;;;23.82;47.81;102167.94;5091068;28;20495;-76
2023/10/01 08:33:21;;;;;;;10.90;6.53;;;;;;;24.28;46.73;102156.69;5092230;28;20035;-76
2023/10/01 08:36:05;;;;;;;13.20;6.97;;;;;;;24.14;46.83;102163.69;5091458;28;20040;-75
2023/10/01 08:38:36;;;;;;;11.55;6.40;;;;;;;23.02;50.68;102163.44;5091985;28;20410;-77
2023/10/01 08:41:05;;;;;;;11.45;6.50;;;;;;;23.98;48.12;102168.16;5093631;28;20487;-77
2023/10/01 08:43:31;;;;;;;12.30;6.28;;;;;;;24.29;47.42;102163.00;5093432;28;20038;-76
2023/10/01 08:46:00;;;;;;;10.93;6.28;;;;;;;25.60;44.06;102150.94;5092353;28;20036;-76
2023/10/01 08:48:35;;;;;;;11.98;6.40;;;;;;;25.68;43.50;102144.91;5082632;28;20051;-76
2023/10/01 08:51:08;;;;;;;14.15;6.68;;;;;;;25.37;44.50;102149.41;5080633;28;20176;-76
2023/10/01 08:53:36;;;;;;;11.75;6.10;;;;;;;25.05;44.83;102150.28;5075617;28;20146;-77
2023/10/01 08:56:04;;;;;;;12.07;6.55;;;;;;;25.12;44.84;102154.47;5091798;28;20134;-76
2023/10/01 08:58:41;;;;;;;10.38;6.57;;;;;;;24.42;46.59;102142.50;5076176;28;20111;-78
2023/10/01 09:01:12;;;;;;;12.43;6.72;;;;;;;24.85;46.05;102154.53;5092351;28;20703;-75
2023/10/01 09:03:38;;;;;;;11.13;6.82;;;;;;;24.50;46.79;102147.56;5092084;28;20040;-77
2023/10/01 09:06:03;;;;;;;11.07;6.47;;;;;;;24.02;48.73;102150.88;5094383;28;20054;-75
2023/10/01 09:08:45;;;;;;;12.23;6.50;;;;;;;23.93;49.50;102153.22;5094485;28;20020;-75
2023/10/01 09:11:14;;;;;;;11.68;6.38;;;;;;;24.95;47.17;102143.59;5104831;28;20032;-76
2023/10/01 09:14:14;;;;;;;13.30;6.72;;;;;;;24.78;47.32;102152.00;5095873;28;20028;-75
2023/10/01 09:16:42;;;;;;;11.77;6.82;;;;;;;25.42;44.87;102154.97;5086792;28;20036;-75
2023/10/01 09:19:30;;;;;;;10.65;6.10;;;;;;;26.18;43.83;102159.22;5091511;28;20030;-75
2023/10/01 09:22:15;;;;;;;10.15;6.20;;;;;;;26.34;43.14;102150.97;5089885;28;20634;-75
2023/10/01 09:24:55;;;;;;;11.25;6.80;;;;;;;26.35;43.14;102140.78;5084305;28;20036;-75
2023/10/01 09:27:27;;;;;;;10.43;6.25;;;;;;;26.12;44.44;102149.25;5073486;28;20506;-75
2023/10/01 09:33:16;;;;;;;11.55;6.80;;;;;;;25.88;45.08;102143.34;5049613;28;20052;-76
2023/10/01 09:36:01;;;;;;;13.48;6.95;;;;;;;26.38;43.59;102148.50;5052817;28;20469;-76
2023/10/01 09:38:27;;;;;;;14.13;7.22;;;;;;;26.36;43.65;102137.72;5048527;28;20036;-75
2023/10/01 09:40:54;;;;;;;12.13;7.15;;;;;;;26.16;43.79;102149.56;5049618;28;20046;-76
2023/10/01 09:43:24;;;;;;;11.00;6.78;;;;;;;25.84;45.61;102150.50;5051303;28;20393;-76
2023/10/01 09:45:51;;;;;;;12.10;7.53;;;;;;;26.40;43.57;102143.50;5049853;28;20025;-76
2023/10/01 09:48:36;;;;;;;14.20;7.80;;;;;;;25.95;44.00;102149.44;5050832;28;20096;-76
2023/10/01 09:51:13;;;;;;;14.35;7.25;;;;;;;26.12;44.43;102151.19;5053538;28;20029;-74
2023/10/01 09:53:54;;;;;;;13.00;7.05;;;;;;;26.01;45.69;102155.81;5050020;28;20040;-75
2023/10/01 09:56:46;;;;;;;11.40;6.85;;;;;;;27.09;42.74;102149.69;5029327;28;20075;-77
2023/10/01 09:59:16;;;;;;;12.35;7.25;;;;;;;26.89;43.54;102139.44;5050997;28;20083;-76
2023/10/01 10:01:42;;;;;;;12.20;6.55;;;;;;;27.26;42.52;102132.78;5051425;28;20020;-76
2023/10/01 10:04:10;;;;;;;12.95;7.57;;;;;;;27.36;42.24;102141.03;5051331;28;20056;-76
2023/10/01 10:06:38;;;;;;;13.40;7.72;;;;;;;27.73;41.01;102140.97;5050011;28;20044;-76
2023/10/01 10:09:06;;;;;;;13.27;7.50;;;;;;;27.68;41.78;102145.44;5050237;28;20029;-75
2023/10/01 10:11:37;;;;;;;12.38;6.95;;;;;;;27.73;41.26;102147.34;5033873;28;20029;-76
2023/10/01 10:14:24;;;;;;;14.15;7.80;;;;;;;27.30;41.63;102136.66;5058730;28;20037;-75
2023/10/01 10:16:59;;;;;;;13.75;7.47;;;;;;;26.83;42.98;102130.34;5058478;28;20043;-75
2023/10/01 10:19:25;;;;;;;12.98;7.85;;;;;;;26.83;42.32;102129.53;5041565;28;20056;-75
2023/10/01 10:24:32;;;;;;;11.73;6.97;;;;;;;26.92;43.28;102133.38;5051655;28;20048;-76
2023/10/01 10:27:07;;;;;;;14.60;7.78;;;;;;;27.00;42.65;102124.53;5033756;28;20025;-76
2023/10/01 10:30:14;;;;;;;12.80;7.40;;;;;;;26.56;44.29;102130.56;5052617;28;20033;-75
2023/10/01 10:32:44;;;;;;;;;;;;;;;26.13;45.43;102133.53;5052154;28;20112;-76
2023/10/01 10:35:16;;;;;;;13.57;8.02;;;;;;;25.96;45.52;102134.56;5051799;28;19916;-75
2023/10/01 10:37:53;;;;;;;13.38;6.97;;;;;;;26.34;46.00;102134.41;5050319;28;20322;-75
2023/10/01 10:40:22;;;;;;;14.32;7.68;;;;;;;27.02;43.15;102127.00;5033729;28;20579;-75
2023/10/01 10:42:57;;;;;;;14.07;7.30;;;;;;;27.39;43.34;102142.44;5052567;28;20037;-76
2023/10/01 10:45:23;;;;;;;;;;;;;;;25.03;48.75;102133.19;5056503;28;20507;-76
2023/10/01 10:47:58;;;;;;;16.40;7.90;;;;;;;26.67;43.72;102137.75;5055132;28;19974;-76
2023/10/01 10:50:47;;;;;;;14.68;7.97;;;;;;;26.89;44.40;102126.47;5052030;28;20098;-76
2023/10/01 10:53:37;;;;;;;13.68;7.22;;;;;;;26.99;44.60;102122.03;5054153;28;20028;-76
2023/10/01 10:59:25;;;;;;;12.55;7.15;;;;;;;26.49;45.38;102115.09;5000933;28;20063;-76
2023/10/01 11:01:56;;;;;;;13.80;7.25;;;;;;;27.14;43.14;102108.19;5063713;28;20029;-76
2023/10/01 11:04:23;;;;;;;13.35;7.30;;;;;;;27.01;43.66;102111.53;5063505;28;20495;-76
2023/10/01 11:10:11;;;;;;;12.05;7.65;;;;;;;27.89;40.16;102108.53;5270009;22;20063;-76
2023/10/01 11:12:54;;;;;;;14.02;7.82;;;;;;;26.81;43.31;102084.75;5094764;28;20040;-76
2023/10/01 11:15:23;;;;;;;15.55;7.80;;;;;;;26.01;46.24;102086.81;5113171;28;20077;-76
2023/10/01 11:17:48;;;;;;;13.65;8.02;;;;;;;27.54;43.53;102095.41;5111827;28;20181;-76
2023/10/01 11:20:23;;;;;;;15.68;8.02;;;;;;;27.07;43.62;102094.66;5093974;28;20208;-76
2023/10/01 11:22:54;;;;;;;13.65;7.32;;;;;;;26.71;44.64;102086.38;5106083;28;20022;-76
2023/10/01 11:25:25;;;;;;;14.10;7.30;;;;;;;27.99;41.60;102100.16;5106418;28;20024;-76
2023/10/01 11:28:04;;;;;;;12.48;6.97;;;;;;;28.84;40.06;102094.63;5089911;28;20027;-77
2023/10/01 11:30:34;;;;;;;14.43;7.25;;;;;;;29.53;38.20;102093.63;5094440;28;20030;-77
2023/10/01 11:35:40;;;;;;;12.10;7.10;;;;;;;29.27;38.13;102089.16;5112973;28;20031;-76
2023/10/01 11:38:22;;;;;;;11.32;6.95;;;;;;;28.97;38.16;102076.47;5093014;28;20122;-76
2023/10/01 11:44:02;;;;;;;13.82;6.80;;;;;;;28.23;40.57;102078.19;5097176;28;20496;-76
2023/10/01 11:46:32;;;;;;;13.68;6.97;;;;;;;29.11;38.83;102068.28;5104304;28;20043;-76
2023/10/01 11:49:14;;;;;;;11.20;6.65;;;;;;;29.68;38.54;102068.44;5111534;28;20137;-76
2023/10/01 11:51:54;;;;;;;11.90;6.70;;;;;;;30.20;37.29;102068.56;5106293;28;20027;-76
2023/10/01 11:54:25;;;;;;;14.60;7.28;;;;;;;29.52;37.18;102055.91;5104994;28;20405;-76
2023/10/01 11:57:07;;;;;;;13.25;6.38;;;;;;;29.29;38.49;102061.97;5093876;28;20034;-76
2023/10/01 11:59:37;;;;;;;12.30;7.00;;;;;;;29.69;37.90;102058.19;5110358;28;20027;-77
2023/10/01 12:02:20;;;;;;;12.77;7.00;;;;;;;29.58;38.02;102057.50;5107661;28;20027;-76
2023/10/01 12:04:56;;;;;;;15.48;6.80;;;;;;;29.73;37.39;102048.97;5113606;28;20495;-76
2023/10/01 12:07:43;;;;;;;11.65;6.53;;;;;;;29.12;38.92;102054.16;5111370;28;20111;-77
2023/10/01 12:10:31;;;;;;;12.45;6.07;;;;;;;29.71;37.63;102048.44;5111673;28;20660;-76
2023/10/01 12:12:59;;;;;;;11.73;6.25;;;;;;;29.56;37.42;102045.88;5109770;28;20043;-77
2023/10/01 12:15:34;;;;;;;12.80;6.03;;;;;;;29.14;38.59;102051.88;5087477;28;20043;-76
2023/10/01 12:18:36;;;;;;;11.27;5.90;;;;;;;29.72;37.87;102050.06;5111788;28;20019;-77
2023/10/01 12:20:56;;;;;;;12.90;6.38;;;;;;;29.83;37.20;102047.19;5109310;28;20387;-78
2023/10/01 12:23:22;;;;;;;11.95;6.03;;;;;;;29.21;38.80;102046.00;5106799;28;20023;-78
2023/10/01 12:26:31;;;;;;;10.35;6.18;;;;;;;29.42;38.70;102054.06;5111461;27;20063;-79